Aeroporto :
LOGIN :

Iscrizione | Disclaimer

   EN    FR    IT 

 










Sommario :    VFR   VFR Marginale   IFR   IFR Intensivo   IFR Molto Intensivo
Visibilità : 
Base nubi : 
>= 8 km
>= 3000ft
5 / 8 km
1000 / 3000 ft
1500m / 5 km
500 / 1000 ft
800 / 1500m
200 / 500 ft
< 800m
< 200 ft
Simboli :   Temporali  Nebbia  Neve Forte  Precipitazioni Forti  Vento > 20 kt
SIGMETs :   Varie  Temporali  Ghiacco  Turbolenza  Onda orograficha  Ceneri Vulcaniche






- Altitudine del aeroporto : 538 ft
- Codice IATA : TNF


LFPN - Toussus Le Noble

ULTIMO METAR :
  • 090300Z AUTO 23017G28KT 9999 BKN022 BKN028 BKN040 07/04 Q1003

METARs OBSOLETI :
  • 090230Z AUTO 24017G27KT 9999 OVC025 07/04 Q1003
  • 090200Z AUTO 23017KT 9999 -RA FEW022 BKN030 BKN039 07/04 Q1003
  • 090130Z AUTO 23016KT 9999 SCT024 BKN029 OVC040 07/04 Q1004
  • 090100Z AUTO 23014KT 9999 BKN022 OVC029 07/04 Q1004
  • 090030Z AUTO 23016KT 9999 BKN022 BKN050 BKN074 07/04 Q1005

Previsioni scadute.
ATIS : +33 1 39 56 54 70



MetMap, La meteo Aeronautica in un colpo d'occhio ! - Copyright ORBIFLY Dicembre 2007 - Disclaimer

ORBIFLY MET'MAP TEAM :

Programmazione e sviluppo : Alexandra Zaïnal
Concezione : Baudouin d'Aumeries
Aiuto per la programmazione : Marc-Olivier Méhu
Supporto tecnico e logistico : Manuel Goepfert
Aiuto per la traduzione : Arnaldo La Scala

Contatto : metmap@orbifly.com




FONTI E CREDITI :

   NOAA